sensor_id;sensor_type;location;lat;lon;timestamp;pressure;altitude;pressure_sealevel;temperature;humidity
29909;BME280;36247;51.952;6.146;2023-06-10T00:02:05;101385.66;;;20.17;100.00
29909;BME280;36247;51.952;6.146;2023-06-10T00:04:31;101398.41;;;20.07;100.00
29909;BME280;36247;51.952;6.146;2023-06-10T00:06:56;101390.50;;;19.98;100.00
29909;BME280;36247;51.952;6.146;2023-06-10T00:09:22;101393.97;;;20.03;100.00
29909;BME280;36247;51.952;6.146;2023-06-10T00:11:48;101395.78;;;20.04;100.00
29909;BME280;36247;51.952;6.146;2023-06-10T00:14:15;101391.41;;;19.97;100.00
29909;BME280;36247;51.952;6.146;2023-06-10T00:16:40;101394.13;;;19.94;100.00
29909;BME280;36247;51.952;6.146;2023-06-10T00:19:10;101395.88;;;19.98;100.00
29909;BME280;36247;51.952;6.146;2023-06-10T00:21:39;101395.97;;;19.92;100.00
29909;BME280;36247;51.952;6.146;2023-06-10T00:24:07;101399.81;;;19.72;100.00
29909;BME280;36247;51.952;6.146;2023-06-10T00:26:41;101391.72;;;19.78;100.00
29909;BME280;36247;51.952;6.146;2023-06-10T00:29:10;101389.91;;;19.79;100.00
29909;BME280;36247;51.952;6.146;2023-06-10T00:31:37;101401.75;;;19.64;100.00
29909;BME280;36247;51.952;6.146;2023-06-10T00:34:09;101395.59;;;19.54;100.00
29909;BME280;36247;51.952;6.146;2023-06-10T00:36:35;101394.53;;;19.66;100.00
29909;BME280;36247;51.952;6.146;2023-06-10T00:39:01;101404.63;;;19.50;100.00
29909;BME280;36247;51.952;6.146;2023-06-10T00:41:26;101393.56;;;19.70;100.00
29909;BME280;36247;51.952;6.146;2023-06-10T00:43:52;101400.78;;;19.68;100.00
29909;BME280;36247;51.952;6.146;2023-06-10T00:46:18;101399.84;;;19.69;100.00
29909;BME280;36247;51.952;6.146;2023-06-10T00:48:45;101407.13;;;19.64;100.00
29909;BME280;36247;51.952;6.146;2023-06-10T00:51:11;101408.88;;;19.66;100.00
29909;BME280;36247;51.952;6.146;2023-06-10T00:53:40;101407.91;;;19.69;100.00
29909;BME280;36247;51.952;6.146;2023-06-10T00:56:10;101411.50;;;19.69;100.00
29909;BME280;36247;51.952;6.146;2023-06-10T00:58:36;101413.28;;;19.69;100.00
29909;BME280;36247;51.952;6.146;2023-06-10T01:01:05;101404.56;;;19.54;100.00
29909;BME280;36247;51.952;6.146;2023-06-10T01:03:31;101410.72;;;19.61;100.00
29909;BME280;36247;51.952;6.146;2023-06-10T01:06:03;101406.34;;;19.54;100.00
29909;BME280;36247;51.952;6.146;2023-06-10T01:08:41;101400.16;;;19.49;100.00
29909;BME280;36247;51.952;6.146;2023-06-10T01:11:17;101402.84;;;19.49;100.00
29909;BME280;36247;51.952;6.146;2023-06-10T01:13:45;101402.00;;;19.45;100.00
29909;BME280;36247;51.952;6.146;2023-06-10T01:16:11;101408.44;;;19.33;100.00
29909;BME280;36247;51.952;6.146;2023-06-10T01:18:40;101403.06;;;19.35;100.00
29909;BME280;36247;51.952;6.146;2023-06-10T01:21:19;101408.38;;;19.38;100.00
29909;BME280;36247;51.952;6.146;2023-06-10T01:23:45;101411.81;;;19.48;100.00
29909;BME280;36247;51.952;6.146;2023-06-10T01:26:11;101407.25;;;19.54;100.00
29909;BME280;36247;51.952;6.146;2023-06-10T01:28:43;101402.97;;;19.40;100.00
29909;BME280;36247;51.952;6.146;2023-06-10T01:31:35;101406.63;;;19.35;100.00
29909;BME280;36247;51.952;6.146;2023-06-10T01:34:11;101413.00;;;19.27;100.00
29909;BME280;36247;51.952;6.146;2023-06-10T01:36:40;101415.19;;;18.94;100.00
29909;BME280;36247;51.952;6.146;2023-06-10T01:39:09;101419.75;;;18.87;100.00
29909;BME280;36247;51.952;6.146;2023-06-10T01:41:38;101411.72;;;18.82;100.00
29909;BME280;36247;51.952;6.146;2023-06-10T01:44:05;101415.31;;;18.81;100.00
29909;BME280;36247;51.952;6.146;2023-06-10T01:46:30;101416.16;;;18.87;100.00
29909;BME280;36247;51.952;6.146;2023-06-10T01:48:56;101420.66;;;18.86;100.00
29909;BME280;36247;51.952;6.146;2023-06-10T01:51:21;101418.84;;;18.83;100.00
29909;BME280;36247;51.952;6.146;2023-06-10T01:53:47;101427.97;;;18.68;100.00
29909;BME280;36247;51.952;6.146;2023-06-10T01:56:13;101425.28;;;18.67;100.00
29909;BME280;36247;51.952;6.146;2023-06-10T01:58:48;101413.84;;;18.53;100.00
29909;BME280;36247;51.952;6.146;2023-06-10T02:01:13;101417.41;;;18.53;100.00
29909;BME280;36247;51.952;6.146;2023-06-10T02:03:40;101421.03;;;18.47;100.00
29909;BME280;36247;51.952;6.146;2023-06-10T02:06:05;101421.19;;;18.30;100.00
29909;BME280;36247;51.952;6.146;2023-06-10T02:08:36;101420.31;;;18.25;100.00
29909;BME280;36247;51.952;6.146;2023-06-10T02:11:01;101421.19;;;18.32;100.00
29909;BME280;36247;51.952;6.146;2023-06-10T02:13:28;101417.78;;;18.10;100.00
29909;BME280;36247;51.952;6.146;2023-06-10T02:15:54;101414.16;;;18.17;100.00
29909;BME280;36247;51.952;6.146;2023-06-10T02:18:20;101417.59;;;18.30;100.00
29909;BME280;36247;51.952;6.146;2023-06-10T02:20:46;101419.38;;;18.32;100.00
29909;BME280;36247;51.952;6.146;2023-06-10T02:23:11;101414.94;;;18.28;100.00
29909;BME280;36247;51.952;6.146;2023-06-10T02:25:37;101428.25;;;18.39;100.00
29909;BME280;36247;51.952;6.146;2023-06-10T02:28:03;101421.25;;;18.20;100.00
29909;BME280;36247;51.952;6.146;2023-06-10T02:30:28;101418.56;;;18.26;100.00
29909;BME280;36247;51.952;6.146;2023-06-10T02:32:54;101422.06;;;18.32;100.00
29909;BME280;36247;51.952;6.146;2023-06-10T02:35:23;101419.53;;;18.14;100.00
29909;BME280;36247;51.952;6.146;2023-06-10T02:37:50;101421.25;;;18.20;100.00
29909;BME280;36247;51.952;6.146;2023-06-10T02:40:17;101425.94;;;17.96;100.00
29909;BME280;36247;51.952;6.146;2023-06-10T02:42:43;101423.16;;;18.08;100.00
29909;BME280;36247;51.952;6.146;2023-06-10T02:45:10;101429.31;;;18.18;100.00
29909;BME280;36247;51.952;6.146;2023-06-10T02:47:41;101432.06;;;18.12;100.00
29909;BME280;36247;51.952;6.146;2023-06-10T02:50:10;101430.31;;;18.06;100.00
29909;BME280;36247;51.952;6.146;2023-06-10T02:52:44;101428.59;;;17.99;100.00
29909;BME280;36247;51.952;6.146;2023-06-10T02:55:10;101424.06;;;18.06;100.00
29909;BME280;36247;51.952;6.146;2023-06-10T02:57:41;101425.97;;;17.94;100.00
29909;BME280;36247;51.952;6.146;2023-06-10T03:00:09;101431.31;;;17.93;100.00
29909;BME280;36247;51.952;6.146;2023-06-10T03:02:40;101431.44;;;17.67;100.00
29909;BME280;36247;51.952;6.146;2023-06-10T03:05:12;101430.59;;;17.60;100.00
29909;BME280;36247;51.952;6.146;2023-06-10T03:07:41;101428.88;;;17.50;100.00
29909;BME280;36247;51.952;6.146;2023-06-10T03:10:10;101433.31;;;17.54;100.00
29909;BME280;36247;51.952;6.146;2023-06-10T03:12:40;101430.53;;;17.72;100.00
29909;BME280;36247;51.952;6.146;2023-06-10T03:15:07;101441.13;;;17.88;100.00
29909;BME280;36247;51.952;6.146;2023-06-10T03:17:35;101437.69;;;17.67;100.00
29909;BME280;36247;51.952;6.146;2023-06-10T03:20:02;101438.47;;;17.85;100.00
29909;BME280;36247;51.952;6.146;2023-06-10T03:22:31;101429.59;;;17.79;100.00
29909;BME280;36247;51.952;6.146;2023-06-10T03:25:05;101441.25;;;17.71;100.00
29909;BME280;36247;51.952;6.146;2023-06-10T03:27:33;101441.31;;;17.63;100.00
29909;BME280;36247;51.952;6.146;2023-06-10T03:30:04;101441.25;;;17.72;100.00
29909;BME280;36247;51.952;6.146;2023-06-10T03:32:29;101439.47;;;17.68;100.00
29909;BME280;36247;51.952;6.146;2023-06-10T03:34:55;101444.03;;;17.52;100.00
29909;BME280;36247;51.952;6.146;2023-06-10T03:37:24;101442.19;;;17.63;100.00
29909;BME280;36247;51.952;6.146;2023-06-10T03:39:49;101450.19;;;17.68;100.00
29909;BME280;36247;51.952;6.146;2023-06-10T03:42:16;101447.59;;;17.57;100.00
29909;BME280;36247;51.952;6.146;2023-06-10T03:44:41;101443.91;;;17.74;100.00
29909;BME280;36247;51.952;6.146;2023-06-10T03:47:10;101447.66;;;17.42;100.00
29909;BME280;36247;51.952;6.146;2023-06-10T03:49:39;101447.59;;;17.57;100.00
29909;BME280;36247;51.952;6.146;2023-06-10T03:52:07;101454.56;;;17.86;100.00
29909;BME280;36247;51.952;6.146;2023-06-10T03:54:34;101456.38;;;17.76;100.00
29909;BME280;36247;51.952;6.146;2023-06-10T03:57:01;101453.78;;;17.67;100.00
29909;BME280;36247;51.952;6.146;2023-06-10T03:59:29;101461.75;;;17.79;100.00
29909;BME280;36247;51.952;6.146;2023-06-10T04:01:55;101452.00;;;17.66;100.00
29909;BME280;36247;51.952;6.146;2023-06-10T04:04:21;101456.47;;;17.62;100.00
29909;BME280;36247;51.952;6.146;2023-06-10T04:06:46;101456.41;;;17.73;100.00
29909;BME280;36247;51.952;6.146;2023-06-10T04:09:14;101461.72;;;17.90;100.00
29909;BME280;36247;51.952;6.146;2023-06-10T04:11:41;101459.06;;;17.83;100.00
29909;BME280;36247;51.952;6.146;2023-06-10T04:14:10;101463.50;;;17.93;100.00
29909;BME280;36247;51.952;6.146;2023-06-10T04:16:40;101466.25;;;17.74;100.00
29909;BME280;36247;51.952;6.146;2023-06-10T04:19:10;101466.25;;;17.73;100.00
29909;BME280;36247;51.952;6.146;2023-06-10T04:21:37;101467.16;;;17.69;100.00
29909;BME280;36247;51.952;6.146;2023-06-10T04:24:06;101466.16;;;17.94;100.00
29909;BME280;36247;51.952;6.146;2023-06-10T04:26:36;101474.16;;;18.01;100.00
29909;BME280;36247;51.952;6.146;2023-06-10T04:29:02;101472.38;;;17.96;100.00
29909;BME280;36247;51.952;6.146;2023-06-10T04:31:29;101475.84;;;18.15;100.00
29909;BME280;36247;51.952;6.146;2023-06-10T04:33:54;101482.16;;;18.05;100.00
29909;BME280;36247;51.952;6.146;2023-06-10T04:36:20;101482.03;;;18.24;100.00
29909;BME280;36247;51.952;6.146;2023-06-10T04:38:46;101483.84;;;18.20;100.00
29909;BME280;36247;51.952;6.146;2023-06-10T04:41:15;101481.22;;;18.12;100.00
29909;BME280;36247;51.952;6.146;2023-06-10T04:43:41;101483.91;;;18.14;100.00
29909;BME280;36247;51.952;6.146;2023-06-10T04:46:10;101480.13;;;18.38;100.00
29909;BME280;36247;51.952;6.146;2023-06-10T04:48:36;101484.47;;;18.52;100.00
29909;BME280;36247;51.952;6.146;2023-06-10T04:51:04;101470.47;;;18.17;100.00
29909;BME280;36247;51.952;6.146;2023-06-10T04:53:30;101476.66;;;18.22;100.00
29909;BME280;36247;51.952;6.146;2023-06-10T04:55:56;101475.63;;;18.40;100.00
29909;BME280;36247;51.952;6.146;2023-06-10T04:58:23;101478.34;;;18.37;100.00
29909;BME280;36247;51.952;6.146;2023-06-10T05:00:48;101484.44;;;18.58;100.00
29909;BME280;36247;51.952;6.146;2023-06-10T05:03:15;101488.06;;;18.49;100.00
29909;BME280;36247;51.952;6.146;2023-06-10T05:05:40;101480.81;;;18.62;100.00
29909;BME280;36247;51.952;6.146;2023-06-10T05:08:08;101483.34;;;18.77;100.00
29909;BME280;36247;51.952;6.146;2023-06-10T05:10:35;101491.47;;;18.71;100.00
29909;BME280;36247;51.952;6.146;2023-06-10T05:13:01;101485.09;;;18.81;100.00
29909;BME280;36247;51.952;6.146;2023-06-10T05:15:26;101479.53;;;19.03;100.00
29909;BME280;36247;51.952;6.146;2023-06-10T05:17:52;101476.81;;;19.05;100.00
29909;BME280;36247;51.952;6.146;2023-06-10T05:20:17;101474.22;;;18.97;100.00
29909;BME280;36247;51.952;6.146;2023-06-10T05:22:43;101483.19;;;18.97;100.00
29909;BME280;36247;51.952;6.146;2023-06-10T05:25:10;101482.31;;;18.94;100.00
29909;BME280;36247;51.952;6.146;2023-06-10T05:27:35;101479.53;;;19.03;100.00
29909;BME280;36247;51.952;6.146;2023-06-10T05:30:02;101484.00;;;19.02;100.00
29909;BME280;36247;51.952;6.146;2023-06-10T05:32:28;101482.13;;;19.11;100.00
29909;BME280;36247;51.952;6.146;2023-06-10T05:34:53;101473.88;;;19.28;100.00
29909;BME280;36247;51.952;6.146;2023-06-10T05:37:19;101475.66;;;19.29;100.00
29909;BME280;36247;51.952;6.146;2023-06-10T05:39:45;101482.75;;;19.34;100.00
29909;BME280;36247;51.952;6.146;2023-06-10T05:42:10;101481.69;;;19.46;100.00
29909;BME280;36247;51.952;6.146;2023-06-10T05:44:36;101482.63;;;19.45;100.00
29909;BME280;36247;51.952;6.146;2023-06-10T05:47:03;101478.16;;;19.44;100.00
29909;BME280;36247;51.952;6.146;2023-06-10T05:49:28;101480.78;;;19.47;100.00
29909;BME280;36247;51.952;6.146;2023-06-10T05:51:54;101484.44;;;19.43;100.00
29909;BME280;36247;51.952;6.146;2023-06-10T05:54:21;101486.25;;;19.41;100.00
29909;BME280;36247;51.952;6.146;2023-06-10T05:56:46;101481.59;;;19.54;100.00
29909;BME280;36247;51.952;6.146;2023-06-10T05:59:12;101483.41;;;19.52;100.00
29909;BME280;36247;51.952;6.146;2023-06-10T06:01:37;101487.75;;;19.64;100.00
29909;BME280;36247;51.952;6.146;2023-06-10T06:04:04;101487.59;;;19.74;100.00
29909;BME280;36247;51.952;6.146;2023-06-10T06:06:30;101487.47;;;19.85;100.00
29909;BME280;36247;51.952;6.146;2023-06-10T06:08:55;101485.63;;;19.90;100.00
29909;BME280;36247;51.952;6.146;2023-06-10T06:11:21;101495.28;;;20.04;100.00
29909;BME280;36247;51.952;6.146;2023-06-10T06:13:47;101487.31;;;19.98;100.00
29909;BME280;36247;51.952;6.146;2023-06-10T06:16:13;101487.06;;;20.13;100.00
29909;BME280;36247;51.952;6.146;2023-06-10T06:18:39;101481.47;;;20.25;100.00
29909;BME280;36247;51.952;6.146;2023-06-10T06:21:10;101488.59;;;20.30;100.00
29909;BME280;36247;51.952;6.146;2023-06-10T06:23:36;101486.72;;;20.35;100.00
29909;BME280;36247;51.952;6.146;2023-06-10T06:26:01;101481.13;;;20.47;100.00
29909;BME280;36247;51.952;6.146;2023-06-10T06:28:27;101490.16;;;20.43;100.00
29909;BME280;36247;51.952;6.146;2023-06-10T06:30:55;101493.56;;;20.56;100.00
29909;BME280;36247;51.952;6.146;2023-06-10T06:33:21;101488.91;;;20.66;100.00
29909;BME280;36247;51.952;6.146;2023-06-10T06:35:47;101489.81;;;20.65;100.00
29909;BME280;36247;51.952;6.146;2023-06-10T06:38:12;101488.72;;;20.76;100.00
29909;BME280;36247;51.952;6.146;2023-06-10T06:40:39;101492.97;;;20.88;100.00
29909;BME280;36247;51.952;6.146;2023-06-10T06:43:05;101482.91;;;21.00;100.00
29909;BME280;36247;51.952;6.146;2023-06-10T06:45:44;101484.59;;;21.05;100.00
29909;BME280;36247;51.952;6.146;2023-06-10T06:48:11;101493.94;;;21.33;100.00
29909;BME280;36247;51.952;6.146;2023-06-10T06:50:36;101494.78;;;21.35;100.00
29909;BME280;36247;51.952;6.146;2023-06-10T06:53:03;101495.72;;;21.34;100.00
29909;BME280;36247;51.952;6.146;2023-06-10T06:55:29;101493.78;;;21.39;100.00
29909;BME280;36247;51.952;6.146;2023-06-10T06:57:55;101488.09;;;21.56;100.00
29909;BME280;36247;51.952;6.146;2023-06-10T07:00:21;101485.28;;;21.62;100.00
29909;BME280;36247;51.952;6.146;2023-06-10T07:02:47;101489.56;;;21.71;100.00
29909;BME280;36247;51.952;6.146;2023-06-10T07:05:13;101496.47;;;21.82;100.00
29909;BME280;36247;51.952;6.146;2023-06-10T07:07:41;101495.75;;;21.76;100.00
29909;BME280;36247;51.952;6.146;2023-06-10T07:10:09;101494.66;;;21.84;100.00
29909;BME280;36247;51.952;6.146;2023-06-10T07:12:35;101495.31;;;21.94;100.00
29909;BME280;36247;51.952;6.146;2023-06-10T07:15:01;101503.75;;;22.18;100.00
29909;BME280;36247;51.952;6.146;2023-06-10T07:17:26;101506.59;;;22.12;100.00
29909;BME280;36247;51.952;6.146;2023-06-10T07:19:52;101500.06;;;22.22;100.00
29909;BME280;36247;51.952;6.146;2023-06-10T07:22:18;101500.72;;;22.33;100.00
29909;BME280;36247;51.952;6.146;2023-06-10T07:24:43;101501.00;;;22.59;100.00
29909;BME280;36247;51.952;6.146;2023-06-10T07:27:10;101495.44;;;22.65;100.00
29909;BME280;36247;51.952;6.146;2023-06-10T07:29:36;101504.25;;;22.71;100.00
29909;BME280;36247;51.952;6.146;2023-06-10T07:32:03;101504.63;;;22.92;100.00
29909;BME280;36247;51.952;6.146;2023-06-10T07:34:29;101504.91;;;22.81;100.00
29909;BME280;36247;51.952;6.146;2023-06-10T07:36:54;101494.31;;;23.06;100.00
29909;BME280;36247;51.952;6.146;2023-06-10T07:39:20;101498.63;;;23.45;100.00
29909;BME280;36247;51.952;6.146;2023-06-10T07:41:46;101503.75;;;23.24;100.00
29909;BME280;36247;51.952;6.146;2023-06-10T07:44:12;101496.28;;;23.33;100.00
29909;BME280;36247;51.952;6.146;2023-06-10T07:46:41;101494.63;;;23.58;100.00
29909;BME280;36247;51.952;6.146;2023-06-10T07:49:06;101500.84;;;23.62;100.00
29909;BME280;36247;51.952;6.146;2023-06-10T07:51:35;101501.19;;;23.51;100.00
29909;BME280;36247;51.952;6.146;2023-06-10T07:54:02;101496.28;;;23.64;100.00
29909;BME280;36247;51.952;6.146;2023-06-10T07:56:27;101500.22;;;23.82;100.00
29909;BME280;36247;51.952;6.146;2023-06-10T07:58:52;101499.50;;;23.77;100.00
29909;BME280;36247;51.952;6.146;2023-06-10T08:01:18;101500.31;;;24.09;100.00
29909;BME280;36247;51.952;6.146;2023-06-10T08:03:43;101504.91;;;24.07;100.00
29909;BME280;36247;51.952;6.146;2023-06-10T08:06:10;101499.78;;;24.26;100.00
29909;BME280;36247;51.952;6.146;2023-06-10T08:08:38;101505.22;;;23.98;100.00
29909;BME280;36247;51.952;6.146;2023-06-10T08:11:13;101501.97;;;24.41;100.00
29909;BME280;36247;51.952;6.146;2023-06-10T08:13:40;101502.84;;;24.42;100.00
29909;BME280;36247;51.952;6.146;2023-06-10T08:16:07;101503.88;;;24.66;100.00
29909;BME280;36247;51.952;6.146;2023-06-10T08:18:40;101498.69;;;24.85;100.00
29909;BME280;36247;51.952;6.146;2023-06-10T08:21:12;101508.38;;;24.92;100.00
29909;BME280;36247;51.952;6.146;2023-06-10T08:23:40;101498.69;;;25.10;98.42
29909;BME280;36247;51.952;6.146;2023-06-10T08:26:06;101511.31;;;25.11;98.28
29909;BME280;36247;51.952;6.146;2023-06-10T08:28:35;101499.59;;;25.36;99.26
29909;BME280;36247;51.952;6.146;2023-06-10T08:31:00;101504.72;;;25.44;95.02
29909;BME280;36247;51.952;6.146;2023-06-10T08:33:26;101502.25;;;25.61;100.00
29909;BME280;36247;51.952;6.146;2023-06-10T08:35:51;101503.41;;;25.78;99.29
29909;BME280;36247;51.952;6.146;2023-06-10T08:38:17;101498.66;;;25.84;89.09
29909;BME280;36247;51.952;6.146;2023-06-10T08:40:42;101497.41;;;26.15;91.30
29909;BME280;36247;51.952;6.146;2023-06-10T08:43:22;101493.34;;;26.05;92.35
29909;BME280;36247;51.952;6.146;2023-06-10T08:45:56;101492.38;;;26.28;93.72
29909;BME280;36247;51.952;6.146;2023-06-10T08:48:28;101497.69;;;26.09;88.08
29909;BME280;36247;51.952;6.146;2023-06-10T08:50:56;101487.47;;;26.16;89.54
29909;BME280;36247;51.952;6.146;2023-06-10T08:53:23;101493.16;;;26.52;84.77
29909;BME280;36247;51.952;6.146;2023-06-10T08:55:51;101494.41;;;26.66;81.15
29909;BME280;36247;51.952;6.146;2023-06-10T08:58:20;101497.66;;;26.76;81.45
29909;BME280;36247;51.952;6.146;2023-06-10T09:00:45;101495.34;;;26.65;82.04
29909;BME280;36247;51.952;6.146;2023-06-10T09:03:12;101498.66;;;26.73;86.66
29909;BME280;36247;51.952;6.146;2023-06-10T09:05:42;101490.25;;;27.00;78.86
29909;BME280;36247;51.952;6.146;2023-06-10T09:08:10;101489.72;;;27.31;85.26
29909;BME280;36247;51.952;6.146;2023-06-10T09:10:40;101489.63;;;27.34;74.82
29909;BME280;36247;51.952;6.146;2023-06-10T09:13:06;101478.84;;;27.71;78.66
29909;BME280;36247;51.952;6.146;2023-06-10T09:15:35;101495.16;;;27.31;71.33
29909;BME280;36247;51.952;6.146;2023-06-10T09:18:01;101494.44;;;27.86;65.51
29909;BME280;36247;51.952;6.146;2023-06-10T09:20:27;101496.78;;;28.13;73.00
29909;BME280;36247;51.952;6.146;2023-06-10T09:22:53;101489.16;;;28.02;68.60
29909;BME280;36247;51.952;6.146;2023-06-10T09:25:18;101491.22;;;28.34;69.20
29909;BME280;36247;51.952;6.146;2023-06-10T09:27:50;101492.50;;;28.26;69.25
29909;BME280;36247;51.952;6.146;2023-06-10T09:30:28;101497.34;;;28.56;65.93
29909;BME280;36247;51.952;6.146;2023-06-10T09:32:55;101498.69;;;28.11;64.10
29909;BME280;36247;51.952;6.146;2023-06-10T09:35:27;101497.31;;;28.39;68.65
29909;BME280;36247;51.952;6.146;2023-06-10T09:37:54;101495.56;;;28.55;66.89
29909;BME280;36247;51.952;6.146;2023-06-10T09:40:21;101496.81;;;28.67;69.89
29909;BME280;36247;51.952;6.146;2023-06-10T09:42:46;101499.34;;;29.05;64.85
29909;BME280;36247;51.952;6.146;2023-06-10T09:45:18;101499.41;;;29.39;62.53
29909;BME280;36247;51.952;6.146;2023-06-10T09:47:54;101493.00;;;29.40;64.13
29909;BME280;36247;51.952;6.146;2023-06-10T09:50:21;101494.03;;;29.37;59.96
29909;BME280;36247;51.952;6.146;2023-06-10T09:52:47;101484.97;;;29.52;60.74
29909;BME280;36247;51.952;6.146;2023-06-10T09:55:13;101486.59;;;29.72;60.14
29909;BME280;36247;51.952;6.146;2023-06-10T09:57:40;101488.66;;;29.35;61.66
29909;BME280;36247;51.952;6.146;2023-06-10T10:00:10;101488.66;;;29.85;58.14
29909;BME280;36247;51.952;6.146;2023-06-10T10:02:48;101488.63;;;29.53;55.97
29909;BME280;36247;51.952;6.146;2023-06-10T10:05:19;101478.78;;;29.98;55.09
29909;BME280;36247;51.952;6.146;2023-06-10T10:07:45;101480.97;;;30.07;56.23
29909;BME280;36247;51.952;6.146;2023-06-10T10:10:12;101476.56;;;30.05;52.48
29909;BME280;36247;51.952;6.146;2023-06-10T10:12:40;101475.84;;;30.49;52.42
29909;BME280;36247;51.952;6.146;2023-06-10T10:15:11;101473.84;;;30.67;51.35
29909;BME280;36247;51.952;6.146;2023-06-10T10:17:44;101472.53;;;30.89;50.89
29909;BME280;36247;51.952;6.146;2023-06-10T10:20:13;101476.97;;;31.06;48.28
29909;BME280;36247;51.952;6.146;2023-06-10T10:22:43;101474.81;;;31.11;49.82
29909;BME280;36247;51.952;6.146;2023-06-10T10:25:15;101465.25;;;31.18;46.18
29909;BME280;36247;51.952;6.146;2023-06-10T10:27:51;101472.50;;;31.34;47.22
29909;BME280;36247;51.952;6.146;2023-06-10T10:30:20;101471.53;;;31.63;44.46
29909;BME280;36247;51.952;6.146;2023-06-10T10:32:57;101462.94;;;32.24;45.10
29909;BME280;36247;51.952;6.146;2023-06-10T10:35:30;101461.75;;;32.01;45.07
29909;BME280;36247;51.952;6.146;2023-06-10T10:37:56;101468.03;;;31.89;43.47
29909;BME280;36247;51.952;6.146;2023-06-10T10:40:22;101459.19;;;31.42;44.79
29909;BME280;36247;51.952;6.146;2023-06-10T10:42:49;101455.28;;;31.46;43.01
29909;BME280;36247;51.952;6.146;2023-06-10T10:45:15;101458.00;;;32.16;42.46
29909;BME280;36247;51.952;6.146;2023-06-10T10:47:43;101466.06;;;31.91;43.94
29909;BME280;36247;51.952;6.146;2023-06-10T10:50:15;101457.03;;;32.03;43.17
29909;BME280;36247;51.952;6.146;2023-06-10T10:53:02;101455.47;;;31.99;42.72
29909;BME280;36247;51.952;6.146;2023-06-10T10:55:28;101450.09;;;32.12;41.48
29909;BME280;36247;51.952;6.146;2023-06-10T10:58:05;101452.19;;;32.61;42.47
29909;BME280;36247;51.952;6.146;2023-06-10T11:00:43;101462.03;;;32.51;39.66
29909;BME280;36247;51.952;6.146;2023-06-10T11:03:16;101466.50;;;32.79;38.70
29909;BME280;36247;51.952;6.146;2023-06-10T11:05:46;101452.72;;;33.32;40.05
29909;BME280;36247;51.952;6.146;2023-06-10T11:08:56;101447.03;;;33.60;39.95
29909;BME280;36247;51.952;6.146;2023-06-10T11:11:25;101444.25;;;32.97;41.87
29909;BME280;36247;51.952;6.146;2023-06-10T11:16:30;101439.66;;;33.60;39.38
29909;BME280;36247;51.952;6.146;2023-06-10T11:18:56;101446.75;;;32.87;37.66
29909;BME280;36247;51.952;6.146;2023-06-10T11:21:24;101450.72;;;33.09;35.06
29909;BME280;36247;51.952;6.146;2023-06-10T11:23:51;101446.47;;;33.80;39.14
29909;BME280;36247;51.952;6.146;2023-06-10T11:33:56;101430.69;;;33.45;38.93
29909;BME280;36247;51.952;6.146;2023-06-10T11:36:23;101429.16;;;33.41;38.88
29909;BME280;36247;51.952;6.146;2023-06-10T11:38:50;101421.50;;;33.83;38.12
29909;BME280;36247;51.952;6.146;2023-06-10T11:41:18;101427.59;;;33.63;37.83
29909;BME280;36247;51.952;6.146;2023-06-10T11:43:45;101421.44;;;33.96;37.26
29909;BME280;36247;51.952;6.146;2023-06-10T11:46:12;101431.25;;;33.50;39.25
29909;BME280;36247;51.952;6.146;2023-06-10T11:48:48;101433.78;;;33.90;36.55
29909;BME280;36247;51.952;6.146;2023-06-10T11:51:15;101436.94;;;33.73;38.13
29909;BME280;36247;51.952;6.146;2023-06-10T11:53:47;101425.06;;;34.21;36.64
29909;BME280;36247;51.952;6.146;2023-06-10T11:56:27;101428.50;;;33.87;37.79
29909;BME280;36247;51.952;6.146;2023-06-10T11:59:00;101425.81;;;34.23;35.59
29909;BME280;36247;51.952;6.146;2023-06-10T12:01:30;101426.53;;;34.14;36.25
29909;BME280;36247;51.952;6.146;2023-06-10T12:04:06;101423.63;;;34.75;36.07
29909;BME280;36247;51.952;6.146;2023-06-10T12:06:45;101433.09;;;34.59;35.64
29909;BME280;36247;51.952;6.146;2023-06-10T12:09:25;101418.63;;;34.09;36.89
29909;BME280;36247;51.952;6.146;2023-06-10T12:14:53;101413.84;;;34.59;36.15
29909;BME280;36247;51.952;6.146;2023-06-10T12:19:59;101405.47;;;34.72;37.08
29909;BME280;36247;51.952;6.146;2023-06-10T12:22:25;101404.03;;;34.44;33.78
29909;BME280;36247;51.952;6.146;2023-06-10T12:24:58;101404.16;;;35.01;34.85
29909;BME280;36247;51.952;6.146;2023-06-10T12:27:31;101403.09;;;34.68;34.74
29909;BME280;36247;51.952;6.146;2023-06-10T12:29:58;101400.81;;;34.61;34.00
29909;BME280;36247;51.952;6.146;2023-06-10T12:32:55;101399.06;;;35.30;32.42
29909;BME280;36247;51.952;6.146;2023-06-10T12:35:26;101397.91;;;34.99;35.16
29909;BME280;36247;51.952;6.146;2023-06-10T12:38:01;101399.91;;;34.85;34.54
29909;BME280;36247;51.952;6.146;2023-06-10T12:40:32;101403.41;;;34.16;35.15
29909;BME280;36247;51.952;6.146;2023-06-10T12:42:58;101401.41;;;34.89;33.89
29909;BME280;36247;51.952;6.146;2023-06-10T12:48:05;101395.63;;;35.60;33.86
29909;BME280;36247;51.952;6.146;2023-06-10T12:50:32;101395.72;;;35.81;31.80
29909;BME280;36247;51.952;6.146;2023-06-10T12:52:59;101387.91;;;35.43;32.81
29909;BME280;36247;51.952;6.146;2023-06-10T12:55:25;101394.66;;;35.05;35.41
29909;BME280;36247;51.952;6.146;2023-06-10T12:57:51;101389.97;;;35.62;33.36
29909;BME280;36247;51.952;6.146;2023-06-10T13:00:18;101390.09;;;35.72;33.83
29909;BME280;36247;51.952;6.146;2023-06-10T13:02:43;101388.50;;;35.58;32.62
29909;BME280;36247;51.952;6.146;2023-06-10T13:05:10;101390.34;;;35.69;33.79
29909;BME280;36247;51.952;6.146;2023-06-10T13:07:41;101385.41;;;35.28;33.22